sensor_id;sensor_type;location;lat;lon;timestamp;temperature;humidity
10121;DHT22;5100;45.176;5.714;2023-07-02T00:01:48;23.80;72.50
10121;DHT22;5100;45.176;5.714;2023-07-02T00:04:15;23.80;72.40
10121;DHT22;5100;45.176;5.714;2023-07-02T00:06:46;23.80;72.30
10121;DHT22;5100;45.176;5.714;2023-07-02T00:09:13;23.80;72.40
10121;DHT22;5100;45.176;5.714;2023-07-02T00:11:42;23.80;72.60
10121;DHT22;5100;45.176;5.714;2023-07-02T00:14:09;23.80;72.90
10121;DHT22;5100;45.176;5.714;2023-07-02T00:16:37;23.80;72.80
10121;DHT22;5100;45.176;5.714;2023-07-02T00:19:04;23.80;72.90
10121;DHT22;5100;45.176;5.714;2023-07-02T00:21:30;23.80;73.00
10121;DHT22;5100;45.176;5.714;2023-07-02T00:23:59;23.80;73.00
10121;DHT22;5100;45.176;5.714;2023-07-02T00:26:27;23.80;73.00
10121;DHT22;5100;45.176;5.714;2023-07-02T00:28:54;23.80;73.20
10121;DHT22;5100;45.176;5.714;2023-07-02T00:31:21;23.80;73.30
10121;DHT22;5100;45.176;5.714;2023-07-02T00:33:48;23.80;73.50
10121;DHT22;5100;45.176;5.714;2023-07-02T00:36:14;23.80;73.90
10121;DHT22;5100;45.176;5.714;2023-07-02T00:38:48;23.80;74.20
10121;DHT22;5100;45.176;5.714;2023-07-02T00:41:15;23.80;74.80
10121;DHT22;5100;45.176;5.714;2023-07-02T00:43:41;23.80;75.20
10121;DHT22;5100;45.176;5.714;2023-07-02T00:46:18;23.80;75.40
10121;DHT22;5100;45.176;5.714;2023-07-02T00:48:54;23.80;75.50
10121;DHT22;5100;45.176;5.714;2023-07-02T00:51:26;23.80;75.30
10121;DHT22;5100;45.176;5.714;2023-07-02T00:53:54;23.80;74.90
10121;DHT22;5100;45.176;5.714;2023-07-02T00:56:22;23.70;74.20
10121;DHT22;5100;45.176;5.714;2023-07-02T00:58:49;23.70;73.80
10121;DHT22;5100;45.176;5.714;2023-07-02T01:01:21;23.60;73.50
10121;DHT22;5100;45.176;5.714;2023-07-02T01:03:59;23.60;73.50
10121;DHT22;5100;45.176;5.714;2023-07-02T01:06:28;23.50;73.60
10121;DHT22;5100;45.176;5.714;2023-07-02T01:08:55;23.40;73.60
10121;DHT22;5100;45.176;5.714;2023-07-02T01:11:25;23.40;73.70
10121;DHT22;5100;45.176;5.714;2023-07-02T01:13:54;23.30;73.80
10121;DHT22;5100;45.176;5.714;2023-07-02T01:16:21;23.30;73.90
10121;DHT22;5100;45.176;5.714;2023-07-02T01:18:49;23.20;74.00
10121;DHT22;5100;45.176;5.714;2023-07-02T01:21:17;23.20;74.30
10121;DHT22;5100;45.176;5.714;2023-07-02T01:23:44;23.20;74.40
10121;DHT22;5100;45.176;5.714;2023-07-02T01:26:10;23.20;74.50
10121;DHT22;5100;45.176;5.714;2023-07-02T01:28:36;23.10;74.50
10121;DHT22;5100;45.176;5.714;2023-07-02T01:31:04;23.10;74.50
10121;DHT22;5100;45.176;5.714;2023-07-02T01:33:31;23.10;74.50
10121;DHT22;5100;45.176;5.714;2023-07-02T01:35:58;23.10;74.70
10121;DHT22;5100;45.176;5.714;2023-07-02T01:38:24;23.10;74.90
10121;DHT22;5100;45.176;5.714;2023-07-02T01:40:50;23.10;74.70
10121;DHT22;5100;45.176;5.714;2023-07-02T01:43:16;23.10;74.70
10121;DHT22;5100;45.176;5.714;2023-07-02T01:45:42;23.10;74.70
10121;DHT22;5100;45.176;5.714;2023-07-02T01:48:08;23.10;74.60
10121;DHT22;5100;45.176;5.714;2023-07-02T01:50:35;23.10;74.60
10121;DHT22;5100;45.176;5.714;2023-07-02T01:53:00;23.10;74.80
10121;DHT22;5100;45.176;5.714;2023-07-02T01:55:26;23.10;74.90
10121;DHT22;5100;45.176;5.714;2023-07-02T01:57:52;23.10;75.00
10121;DHT22;5100;45.176;5.714;2023-07-02T02:00:19;23.10;75.30
10121;DHT22;5100;45.176;5.714;2023-07-02T02:02:44;23.10;75.30
10121;DHT22;5100;45.176;5.714;2023-07-02T02:05:11;23.10;75.30
10121;DHT22;5100;45.176;5.714;2023-07-02T02:07:37;23.10;75.30
10121;DHT22;5100;45.176;5.714;2023-07-02T02:10:03;23.10;75.40
10121;DHT22;5100;45.176;5.714;2023-07-02T02:12:30;23.10;75.60
10121;DHT22;5100;45.176;5.714;2023-07-02T02:14:57;23.10;75.70
10121;DHT22;5100;45.176;5.714;2023-07-02T02:17:23;23.10;75.70
10121;DHT22;5100;45.176;5.714;2023-07-02T02:19:52;23.10;75.70
10121;DHT22;5100;45.176;5.714;2023-07-02T02:22:18;23.10;75.70
10121;DHT22;5100;45.176;5.714;2023-07-02T02:24:44;23.10;75.80
10121;DHT22;5100;45.176;5.714;2023-07-02T02:27:10;23.10;75.70
10121;DHT22;5100;45.176;5.714;2023-07-02T02:29:36;23.10;75.90
10121;DHT22;5100;45.176;5.714;2023-07-02T02:32:03;23.10;76.10
10121;DHT22;5100;45.176;5.714;2023-07-02T02:34:29;23.10;76.30
10121;DHT22;5100;45.176;5.714;2023-07-02T02:36:56;23.10;76.10
10121;DHT22;5100;45.176;5.714;2023-07-02T02:39:23;23.10;75.90
10121;DHT22;5100;45.176;5.714;2023-07-02T02:41:49;23.10;75.40
10121;DHT22;5100;45.176;5.714;2023-07-02T02:44:15;23.10;75.00
10121;DHT22;5100;45.176;5.714;2023-07-02T02:46:42;23.10;74.50
10121;DHT22;5100;45.176;5.714;2023-07-02T02:49:07;23.10;74.30
10121;DHT22;5100;45.176;5.714;2023-07-02T02:51:33;23.10;74.00
10121;DHT22;5100;45.176;5.714;2023-07-02T02:53:59;23.10;73.80
10121;DHT22;5100;45.176;5.714;2023-07-02T02:56:25;23.10;73.80
10121;DHT22;5100;45.176;5.714;2023-07-02T02:58:51;23.10;73.80
10121;DHT22;5100;45.176;5.714;2023-07-02T03:01:17;23.10;73.80
10121;DHT22;5100;45.176;5.714;2023-07-02T03:03:43;23.10;73.80
10121;DHT22;5100;45.176;5.714;2023-07-02T03:06:12;23.10;73.90
10121;DHT22;5100;45.176;5.714;2023-07-02T03:08:39;23.10;74.10
10121;DHT22;5100;45.176;5.714;2023-07-02T03:11:05;23.00;74.10
10121;DHT22;5100;45.176;5.714;2023-07-02T03:13:31;23.00;74.10
10121;DHT22;5100;45.176;5.714;2023-07-02T03:15:58;23.00;74.20
10121;DHT22;5100;45.176;5.714;2023-07-02T03:18:24;23.00;74.00
10121;DHT22;5100;45.176;5.714;2023-07-02T03:20:50;23.00;74.00
10121;DHT22;5100;45.176;5.714;2023-07-02T03:23:16;23.00;74.20
10121;DHT22;5100;45.176;5.714;2023-07-02T03:25:42;23.00;74.20
10121;DHT22;5100;45.176;5.714;2023-07-02T03:28:08;23.00;74.30
10121;DHT22;5100;45.176;5.714;2023-07-02T03:30:34;23.00;74.20
10121;DHT22;5100;45.176;5.714;2023-07-02T03:33:00;23.00;74.10
10121;DHT22;5100;45.176;5.714;2023-07-02T03:35:26;23.00;74.10
10121;DHT22;5100;45.176;5.714;2023-07-02T03:37:52;23.00;74.00
10121;DHT22;5100;45.176;5.714;2023-07-02T03:40:18;23.00;74.00
10121;DHT22;5100;45.176;5.714;2023-07-02T03:42:44;23.00;74.00
10121;DHT22;5100;45.176;5.714;2023-07-02T03:45:11;23.00;74.00
10121;DHT22;5100;45.176;5.714;2023-07-02T03:47:37;22.90;74.10
10121;DHT22;5100;45.176;5.714;2023-07-02T03:50:03;22.90;74.10
10121;DHT22;5100;45.176;5.714;2023-07-02T03:52:29;22.90;74.10
10121;DHT22;5100;45.176;5.714;2023-07-02T03:54:55;22.90;74.10
10121;DHT22;5100;45.176;5.714;2023-07-02T03:57:21;22.90;74.10
10121;DHT22;5100;45.176;5.714;2023-07-02T03:59:47;22.90;74.20
10121;DHT22;5100;45.176;5.714;2023-07-02T04:02:13;22.90;74.20
10121;DHT22;5100;45.176;5.714;2023-07-02T04:04:39;22.90;74.30
10121;DHT22;5100;45.176;5.714;2023-07-02T04:07:05;22.90;74.30
10121;DHT22;5100;45.176;5.714;2023-07-02T04:09:31;22.90;74.40
10121;DHT22;5100;45.176;5.714;2023-07-02T04:12:00;22.90;74.40
10121;DHT22;5100;45.176;5.714;2023-07-02T04:14:26;22.90;74.40
10121;DHT22;5100;45.176;5.714;2023-07-02T04:16:52;22.90;74.50
10121;DHT22;5100;45.176;5.714;2023-07-02T04:19:18;22.90;74.50
10121;DHT22;5100;45.176;5.714;2023-07-02T04:21:44;22.90;74.60
10121;DHT22;5100;45.176;5.714;2023-07-02T04:24:10;22.90;74.60
10121;DHT22;5100;45.176;5.714;2023-07-02T04:26:36;22.80;74.60
10121;DHT22;5100;45.176;5.714;2023-07-02T04:29:02;22.90;74.60
10121;DHT22;5100;45.176;5.714;2023-07-02T04:31:28;22.80;74.60
10121;DHT22;5100;45.176;5.714;2023-07-02T04:33:54;22.90;74.60
10121;DHT22;5100;45.176;5.714;2023-07-02T04:36:20;22.80;74.70
10121;DHT22;5100;45.176;5.714;2023-07-02T04:38:46;22.80;74.80
10121;DHT22;5100;45.176;5.714;2023-07-02T04:41:12;22.80;74.80
10121;DHT22;5100;45.176;5.714;2023-07-02T04:43:38;22.80;74.90
10121;DHT22;5100;45.176;5.714;2023-07-02T04:46:04;22.80;75.00
10121;DHT22;5100;45.176;5.714;2023-07-02T04:48:34;22.80;75.10
10121;DHT22;5100;45.176;5.714;2023-07-02T04:50:59;22.80;75.00
10121;DHT22;5100;45.176;5.714;2023-07-02T04:53:25;22.80;74.90
10121;DHT22;5100;45.176;5.714;2023-07-02T04:55:52;22.80;75.00
10121;DHT22;5100;45.176;5.714;2023-07-02T04:58:18;22.80;75.00
10121;DHT22;5100;45.176;5.714;2023-07-02T05:00:44;22.80;75.00
10121;DHT22;5100;45.176;5.714;2023-07-02T05:03:10;22.80;74.80
10121;DHT22;5100;45.176;5.714;2023-07-02T05:05:36;22.80;74.80
10121;DHT22;5100;45.176;5.714;2023-07-02T05:08:02;22.80;74.70
10121;DHT22;5100;45.176;5.714;2023-07-02T05:10:30;22.90;74.70
10121;DHT22;5100;45.176;5.714;2023-07-02T05:12:56;22.90;74.70
10121;DHT22;5100;45.176;5.714;2023-07-02T05:15:23;22.90;74.70
10121;DHT22;5100;45.176;5.714;2023-07-02T05:17:50;22.90;74.80
10121;DHT22;5100;45.176;5.714;2023-07-02T05:20:16;22.90;74.90
10121;DHT22;5100;45.176;5.714;2023-07-02T05:22:41;22.90;75.00
10121;DHT22;5100;45.176;5.714;2023-07-02T05:25:08;22.90;75.00
10121;DHT22;5100;45.176;5.714;2023-07-02T05:27:34;22.90;75.00
10121;DHT22;5100;45.176;5.714;2023-07-02T05:30:00;23.00;75.10
10121;DHT22;5100;45.176;5.714;2023-07-02T05:32:26;23.00;75.30
10121;DHT22;5100;45.176;5.714;2023-07-02T05:34:52;23.00;75.40
10121;DHT22;5100;45.176;5.714;2023-07-02T05:37:18;23.00;75.10
10121;DHT22;5100;45.176;5.714;2023-07-02T05:39:45;23.00;75.10
10121;DHT22;5100;45.176;5.714;2023-07-02T05:42:10;23.00;75.60
10121;DHT22;5100;45.176;5.714;2023-07-02T05:44:36;23.00;75.80
10121;DHT22;5100;45.176;5.714;2023-07-02T05:47:03;23.10;75.80
10121;DHT22;5100;45.176;5.714;2023-07-02T05:49:29;23.10;75.90
10121;DHT22;5100;45.176;5.714;2023-07-02T05:51:54;23.10;76.20
10121;DHT22;5100;45.176;5.714;2023-07-02T05:54:20;23.10;76.10
10121;DHT22;5100;45.176;5.714;2023-07-02T05:56:46;23.10;75.80
10121;DHT22;5100;45.176;5.714;2023-07-02T05:59:12;23.10;75.70
10121;DHT22;5100;45.176;5.714;2023-07-02T06:01:43;23.10;75.60
10121;DHT22;5100;45.176;5.714;2023-07-02T06:04:10;23.20;75.60
10121;DHT22;5100;45.176;5.714;2023-07-02T06:06:36;23.20;75.60
10121;DHT22;5100;45.176;5.714;2023-07-02T06:09:02;23.20;75.50
10121;DHT22;5100;45.176;5.714;2023-07-02T06:11:29;23.20;75.50
10121;DHT22;5100;45.176;5.714;2023-07-02T06:13:55;23.20;75.50
10121;DHT22;5100;45.176;5.714;2023-07-02T06:16:21;23.30;75.40
10121;DHT22;5100;45.176;5.714;2023-07-02T06:18:47;23.30;75.30
10121;DHT22;5100;45.176;5.714;2023-07-02T06:21:13;23.30;75.30
10121;DHT22;5100;45.176;5.714;2023-07-02T06:23:43;23.30;75.40
10121;DHT22;5100;45.176;5.714;2023-07-02T06:26:10;23.30;75.20
10121;DHT22;5100;45.176;5.714;2023-07-02T06:28:37;23.30;75.00
10121;DHT22;5100;45.176;5.714;2023-07-02T06:31:03;23.40;74.90
10121;DHT22;5100;45.176;5.714;2023-07-02T06:33:29;23.40;74.80
10121;DHT22;5100;45.176;5.714;2023-07-02T06:35:55;23.40;74.80
10121;DHT22;5100;45.176;5.714;2023-07-02T06:38:21;23.50;74.80
10121;DHT22;5100;45.176;5.714;2023-07-02T06:40:47;23.50;74.90
10121;DHT22;5100;45.176;5.714;2023-07-02T06:43:13;23.50;74.50
10121;DHT22;5100;45.176;5.714;2023-07-02T06:45:39;23.60;74.40
10121;DHT22;5100;45.176;5.714;2023-07-02T06:48:05;23.60;74.50
10121;DHT22;5100;45.176;5.714;2023-07-02T06:50:31;23.60;74.40
10121;DHT22;5100;45.176;5.714;2023-07-02T06:52:57;23.70;74.10
10121;DHT22;5100;45.176;5.714;2023-07-02T06:55:24;23.70;74.10
10121;DHT22;5100;45.176;5.714;2023-07-02T06:57:50;23.70;73.70
10121;DHT22;5100;45.176;5.714;2023-07-02T07:00:16;23.70;73.50
10121;DHT22;5100;45.176;5.714;2023-07-02T07:02:42;23.70;73.40
10121;DHT22;5100;45.176;5.714;2023-07-02T07:05:08;23.70;73.20
10121;DHT22;5100;45.176;5.714;2023-07-02T07:07:35;23.80;73.20
10121;DHT22;5100;45.176;5.714;2023-07-02T07:10:01;23.80;73.00
10121;DHT22;5100;45.176;5.714;2023-07-02T07:12:27;23.80;73.00
10121;DHT22;5100;45.176;5.714;2023-07-02T07:14:53;23.80;72.70
10121;DHT22;5100;45.176;5.714;2023-07-02T07:17:19;23.90;72.40
10121;DHT22;5100;45.176;5.714;2023-07-02T07:19:45;23.90;72.30
10121;DHT22;5100;45.176;5.714;2023-07-02T07:22:11;23.90;72.10
10121;DHT22;5100;45.176;5.714;2023-07-02T07:24:37;24.00;72.00
10121;DHT22;5100;45.176;5.714;2023-07-02T07:27:03;24.00;71.90
10121;DHT22;5100;45.176;5.714;2023-07-02T07:29:29;24.10;71.30
10121;DHT22;5100;45.176;5.714;2023-07-02T07:31:55;24.10;71.10
10121;DHT22;5100;45.176;5.714;2023-07-02T07:34:21;24.20;71.20
10121;DHT22;5100;45.176;5.714;2023-07-02T07:36:47;24.30;70.80
10121;DHT22;5100;45.176;5.714;2023-07-02T07:39:14;24.30;70.40
10121;DHT22;5100;45.176;5.714;2023-07-02T07:41:40;24.40;70.00
10121;DHT22;5100;45.176;5.714;2023-07-02T07:44:06;24.50;69.90
10121;DHT22;5100;45.176;5.714;2023-07-02T07:46:32;24.60;69.70
10121;DHT22;5100;45.176;5.714;2023-07-02T07:48:58;24.70;69.40
10121;DHT22;5100;45.176;5.714;2023-07-02T07:51:23;24.80;68.90
10121;DHT22;5100;45.176;5.714;2023-07-02T07:53:50;24.90;68.60
10121;DHT22;5100;45.176;5.714;2023-07-02T07:56:15;25.00;68.30
10121;DHT22;5100;45.176;5.714;2023-07-02T07:58:41;25.10;67.90
10121;DHT22;5100;45.176;5.714;2023-07-02T08:01:07;25.20;67.60
10121;DHT22;5100;45.176;5.714;2023-07-02T08:03:37;25.30;67.30
10121;DHT22;5100;45.176;5.714;2023-07-02T08:06:03;25.30;67.20
10121;DHT22;5100;45.176;5.714;2023-07-02T08:08:29;25.30;67.30
10121;DHT22;5100;45.176;5.714;2023-07-02T08:10:55;25.40;66.80
10121;DHT22;5100;45.176;5.714;2023-07-02T08:13:21;25.40;66.50
10121;DHT22;5100;45.176;5.714;2023-07-02T08:15:47;25.40;66.00
10121;DHT22;5100;45.176;5.714;2023-07-02T08:18:13;25.40;65.60
10121;DHT22;5100;45.176;5.714;2023-07-02T08:20:39;25.40;65.70
10121;DHT22;5100;45.176;5.714;2023-07-02T08:23:05;25.40;65.60
10121;DHT22;5100;45.176;5.714;2023-07-02T08:25:31;25.40;65.60
10121;DHT22;5100;45.176;5.714;2023-07-02T08:27:57;25.40;65.70
10121;DHT22;5100;45.176;5.714;2023-07-02T08:30:23;25.40;65.60
10121;DHT22;5100;45.176;5.714;2023-07-02T08:32:49;25.40;65.60
10121;DHT22;5100;45.176;5.714;2023-07-02T08:35:15;25.30;65.80
10121;DHT22;5100;45.176;5.714;2023-07-02T08:37:41;25.30;65.90
10121;DHT22;5100;45.176;5.714;2023-07-02T08:40:16;25.30;65.80
10121;DHT22;5100;45.176;5.714;2023-07-02T08:42:43;25.30;65.90
10121;DHT22;5100;45.176;5.714;2023-07-02T08:45:11;25.20;65.60
10121;DHT22;5100;45.176;5.714;2023-07-02T08:47:37;25.20;65.30
10121;DHT22;5100;45.176;5.714;2023-07-02T08:50:03;25.20;65.40
10121;DHT22;5100;45.176;5.714;2023-07-02T08:52:31;25.20;65.40
10121;DHT22;5100;45.176;5.714;2023-07-02T08:54:57;25.20;65.10
10121;DHT22;5100;45.176;5.714;2023-07-02T08:57:23;25.20;65.10
10121;DHT22;5100;45.176;5.714;2023-07-02T08:59:49;25.20;65.10
10121;DHT22;5100;45.176;5.714;2023-07-02T09:02:17;25.20;65.30
10121;DHT22;5100;45.176;5.714;2023-07-02T09:04:43;25.20;65.40
10121;DHT22;5100;45.176;5.714;2023-07-02T09:07:10;25.20;65.30
10121;DHT22;5100;45.176;5.714;2023-07-02T09:09:49;25.20;65.10
10121;DHT22;5100;45.176;5.714;2023-07-02T09:12:26;25.20;65.10
10121;DHT22;5100;45.176;5.714;2023-07-02T09:14:57;25.20;65.10
10121;DHT22;5100;45.176;5.714;2023-07-02T09:17:35;25.20;65.40
10121;DHT22;5100;45.176;5.714;2023-07-02T09:20:03;25.30;65.40
10121;DHT22;5100;45.176;5.714;2023-07-02T09:22:36;25.30;65.00
10121;DHT22;5100;45.176;5.714;2023-07-02T09:25:03;25.30;65.10
10121;DHT22;5100;45.176;5.714;2023-07-02T09:27:41;25.30;65.00
10121;DHT22;5100;45.176;5.714;2023-07-02T09:30:13;25.40;64.70
10121;DHT22;5100;45.176;5.714;2023-07-02T09:32:44;25.40;64.70
10121;DHT22;5100;45.176;5.714;2023-07-02T09:35:11;25.50;64.50
10121;DHT22;5100;45.176;5.714;2023-07-02T09:37:38;25.50;64.50
10121;DHT22;5100;45.176;5.714;2023-07-02T09:40:04;25.50;64.50
10121;DHT22;5100;45.176;5.714;2023-07-02T09:42:35;25.60;64.30
10121;DHT22;5100;45.176;5.714;2023-07-02T09:45:09;25.60;64.00
10121;DHT22;5100;45.176;5.714;2023-07-02T09:47:43;25.60;64.10
10121;DHT22;5100;45.176;5.714;2023-07-02T09:50:13;25.60;64.00
10121;DHT22;5100;45.176;5.714;2023-07-02T09:52:40;25.60;64.10
10121;DHT22;5100;45.176;5.714;2023-07-02T09:55:07;25.60;64.00
10121;DHT22;5100;45.176;5.714;2023-07-02T09:57:33;25.60;64.00
10121;DHT22;5100;45.176;5.714;2023-07-02T10:00:01;25.60;63.90
10121;DHT22;5100;45.176;5.714;2023-07-02T10:02:27;25.60;63.70
10121;DHT22;5100;45.176;5.714;2023-07-02T10:04:53;25.60;63.30
10121;DHT22;5100;45.176;5.714;2023-07-02T10:07:28;25.60;63.30
10121;DHT22;5100;45.176;5.714;2023-07-02T10:09:55;25.60;63.20
10121;DHT22;5100;45.176;5.714;2023-07-02T10:12:28;25.60;63.30
10121;DHT22;5100;45.176;5.714;2023-07-02T10:14:56;25.60;63.50
10121;DHT22;5100;45.176;5.714;2023-07-02T10:17:32;25.60;63.50
10121;DHT22;5100;45.176;5.714;2023-07-02T10:20:04;25.60;63.50
10121;DHT22;5100;45.176;5.714;2023-07-02T10:22:47;25.60;63.50
10121;DHT22;5100;45.176;5.714;2023-07-02T10:25:26;25.60;63.40
10121;DHT22;5100;45.176;5.714;2023-07-02T10:27:53;25.70;63.30
10121;DHT22;5100;45.176;5.714;2023-07-02T10:30:48;25.70;62.50
10121;DHT22;5100;45.176;5.714;2023-07-02T10:33:16;25.70;62.50
10121;DHT22;5100;45.176;5.714;2023-07-02T10:35:47;25.70;62.30
10121;DHT22;5100;45.176;5.714;2023-07-02T10:38:20;25.70;62.50
10121;DHT22;5100;45.176;5.714;2023-07-02T10:40:47;25.70;62.30
10121;DHT22;5100;45.176;5.714;2023-07-02T10:43:13;25.70;62.20
10121;DHT22;5100;45.176;5.714;2023-07-02T10:45:39;25.70;62.50
10121;DHT22;5100;45.176;5.714;2023-07-02T10:48:09;25.70;62.70
10121;DHT22;5100;45.176;5.714;2023-07-02T10:50:36;25.80;62.80
10121;DHT22;5100;45.176;5.714;2023-07-02T10:53:03;25.80;62.50
10121;DHT22;5100;45.176;5.714;2023-07-02T10:55:29;25.80;62.50
10121;DHT22;5100;45.176;5.714;2023-07-02T10:58:06;25.80;62.50
10121;DHT22;5100;45.176;5.714;2023-07-02T11:00:42;25.90;62.60
10121;DHT22;5100;45.176;5.714;2023-07-02T11:03:17;25.90;62.70
10121;DHT22;5100;45.176;5.714;2023-07-02T11:05:44;25.90;62.50
10121;DHT22;5100;45.176;5.714;2023-07-02T11:08:10;25.90;62.20
10121;DHT22;5100;45.176;5.714;2023-07-02T11:10:36;25.90;62.10
10121;DHT22;5100;45.176;5.714;2023-07-02T11:13:17;25.90;62.10
10121;DHT22;5100;45.176;5.714;2023-07-02T11:15:44;25.90;62.20
10121;DHT22;5100;45.176;5.714;2023-07-02T11:18:12;25.90;62.40
10121;DHT22;5100;45.176;5.714;2023-07-02T11:20:39;25.90;62.70
10121;DHT22;5100;45.176;5.714;2023-07-02T11:23:23;25.90;62.70
10121;DHT22;5100;45.176;5.714;2023-07-02T11:25:59;26.00;62.40
10121;DHT22;5100;45.176;5.714;2023-07-02T11:28:26;26.00;61.80
10121;DHT22;5100;45.176;5.714;2023-07-02T11:30:52;26.00;61.50
10121;DHT22;5100;45.176;5.714;2023-07-02T11:33:18;26.00;61.60
10121;DHT22;5100;45.176;5.714;2023-07-02T11:35:44;26.00;61.30
10121;DHT22;5100;45.176;5.714;2023-07-02T11:38:11;26.00;61.00
10121;DHT22;5100;45.176;5.714;2023-07-02T11:40:37;26.00;60.80
10121;DHT22;5100;45.176;5.714;2023-07-02T11:43:03;26.00;60.80
10121;DHT22;5100;45.176;5.714;2023-07-02T11:45:29;26.10;60.70
10121;DHT22;5100;45.176;5.714;2023-07-02T11:47:55;26.10;60.20
10121;DHT22;5100;45.176;5.714;2023-07-02T11:50:21;26.10;60.10
10121;DHT22;5100;45.176;5.714;2023-07-02T11:52:47;26.10;60.10
10121;DHT22;5100;45.176;5.714;2023-07-02T11:55:13;26.20;59.70
10121;DHT22;5100;45.176;5.714;2023-07-02T11:57:39;26.20;59.40
10121;DHT22;5100;45.176;5.714;2023-07-02T12:00:06;26.20;59.30
10121;DHT22;5100;45.176;5.714;2023-07-02T12:02:33;26.20;59.50
10121;DHT22;5100;45.176;5.714;2023-07-02T12:05:00;26.20;59.70
10121;DHT22;5100;45.176;5.714;2023-07-02T12:07:25;26.30;59.40
10121;DHT22;5100;45.176;5.714;2023-07-02T12:09:51;26.30;59.70
10121;DHT22;5100;45.176;5.714;2023-07-02T12:12:18;26.30;59.70
10121;DHT22;5100;45.176;5.714;2023-07-02T12:14:44;26.30;60.00
10121;DHT22;5100;45.176;5.714;2023-07-02T12:17:10;26.30;60.30
10121;DHT22;5100;45.176;5.714;2023-07-02T12:19:41;26.30;60.40
10121;DHT22;5100;45.176;5.714;2023-07-02T12:22:07;26.30;60.40
10121;DHT22;5100;45.176;5.714;2023-07-02T12:24:33;26.40;60.30
10121;DHT22;5100;45.176;5.714;2023-07-02T12:26:59;26.40;60.50
10121;DHT22;5100;45.176;5.714;2023-07-02T12:29:25;26.40;60.40
10121;DHT22;5100;45.176;5.714;2023-07-02T12:31:51;26.40;60.30
10121;DHT22;5100;45.176;5.714;2023-07-02T12:34:17;26.40;60.10
10121;DHT22;5100;45.176;5.714;2023-07-02T12:36:43;26.40;59.90
10121;DHT22;5100;45.176;5.714;2023-07-02T12:39:09;26.40;59.70
10121;DHT22;5100;45.176;5.714;2023-07-02T12:41:35;26.40;59.90
10121;DHT22;5100;45.176;5.714;2023-07-02T12:44:01;26.50;60.00
10121;DHT22;5100;45.176;5.714;2023-07-02T12:46:27;26.50;60.00
10121;DHT22;5100;45.176;5.714;2023-07-02T12:48:54;26.50;60.10
10121;DHT22;5100;45.176;5.714;2023-07-02T12:51:19;26.60;59.60
10121;DHT22;5100;45.176;5.714;2023-07-02T12:53:45;26.60;59.10
10121;DHT22;5100;45.176;5.714;2023-07-02T12:56:11;26.60;59.10
10121;DHT22;5100;45.176;5.714;2023-07-02T12:58:37;26.60;59.40
10121;DHT22;5100;45.176;5.714;2023-07-02T13:01:03;26.70;59.40
10121;DHT22;5100;45.176;5.714;2023-07-02T13:03:30;26.70;59.40
10121;DHT22;5100;45.176;5.714;2023-07-02T13:05:56;26.70;59.50
10121;DHT22;5100;45.176;5.714;2023-07-02T13:08:22;26.70;59.40
10121;DHT22;5100;45.176;5.714;2023-07-02T13:10:48;26.70;59.60
10121;DHT22;5100;45.176;5.714;2023-07-02T13:13:14;26.70;59.60
10121;DHT22;5100;45.176;5.714;2023-07-02T13:15:40;26.70;59.40
10121;DHT22;5100;45.176;5.714;2023-07-02T13:18:06;26.80;59.20
10121;DHT22;5100;45.176;5.714;2023-07-02T13:20:32;26.80;59.10
10121;DHT22;5100;45.176;5.714;2023-07-02T13:22:58;26.80;57.60
10121;DHT22;5100;45.176;5.714;2023-07-02T13:25:24;26.80;57.70
10121;DHT22;5100;45.176;5.714;2023-07-02T13:27:50;26.80;58.10
10121;DHT22;5100;45.176;5.714;2023-07-02T13:30:16;26.80;57.90
10121;DHT22;5100;45.176;5.714;2023-07-02T13:32:42;26.90;57.80
10121;DHT22;5100;45.176;5.714;2023-07-02T13:35:08;26.90;57.90
10121;DHT22;5100;45.176;5.714;2023-07-02T13:37:34;26.90;57.80
10121;DHT22;5100;45.176;5.714;2023-07-02T13:40:00;26.90;58.00
10121;DHT22;5100;45.176;5.714;2023-07-02T13:42:26;26.90;58.00
10121;DHT22;5100;45.176;5.714;2023-07-02T13:44:52;26.90;57.90
10121;DHT22;5100;45.176;5.714;2023-07-02T13:47:19;26.90;58.30
10121;DHT22;5100;45.176;5.714;2023-07-02T13:49:44;26.90;58.30
10121;DHT22;5100;45.176;5.714;2023-07-02T13:52:10;27.00;58.30
10121;DHT22;5100;45.176;5.714;2023-07-02T13:54:37;27.00;58.30
10121;DHT22;5100;45.176;5.714;2023-07-02T13:57:03;27.00;58.40
10121;DHT22;5100;45.176;5.714;2023-07-02T13:59:29;27.00;58.50
10121;DHT22;5100;45.176;5.714;2023-07-02T14:01:55;27.00;58.60
10121;DHT22;5100;45.176;5.714;2023-07-02T14:04:21;27.00;58.50
10121;DHT22;5100;45.176;5.714;2023-07-02T14:06:47;27.00;58.30
10121;DHT22;5100;45.176;5.714;2023-07-02T14:09:13;27.00;58.00
10121;DHT22;5100;45.176;5.714;2023-07-02T14:11:41;27.00;58.10
10121;DHT22;5100;45.176;5.714;2023-07-02T14:14:08;27.10;58.10
10121;DHT22;5100;45.176;5.714;2023-07-02T14:16:35;27.10;58.40
10121;DHT22;5100;45.176;5.714;2023-07-02T14:19:01;27.10;58.50
10121;DHT22;5100;45.176;5.714;2023-07-02T14:21:27;27.10;58.30
10121;DHT22;5100;45.176;5.714;2023-07-02T14:23:53;27.10;58.10
10121;DHT22;5100;45.176;5.714;2023-07-02T14:26:19;27.10;58.10
10121;DHT22;5100;45.176;5.714;2023-07-02T14:28:45;27.10;58.20
10121;DHT22;5100;45.176;5.714;2023-07-02T14:31:11;27.10;58.20
10121;DHT22;5100;45.176;5.714;2023-07-02T14:33:38;27.10;58.10
10121;DHT22;5100;45.176;5.714;2023-07-02T14:36:04;27.10;58.20
10121;DHT22;5100;45.176;5.714;2023-07-02T14:38:31;27.10;57.90
10121;DHT22;5100;45.176;5.714;2023-07-02T14:40:57;27.20;57.60
10121;DHT22;5100;45.176;5.714;2023-07-02T14:43:25;27.20;58.00
10121;DHT22;5100;45.176;5.714;2023-07-02T14:45:54;27.20;57.90
10121;DHT22;5100;45.176;5.714;2023-07-02T14:48:21;27.20;57.70
10121;DHT22;5100;45.176;5.714;2023-07-02T14:50:52;27.20;57.60
10121;DHT22;5100;45.176;5.714;2023-07-02T14:53:19;27.20;57.70
10121;DHT22;5100;45.176;5.714;2023-07-02T14:55:46;27.20;57.70
10121;DHT22;5100;45.176;5.714;2023-07-02T14:58:14;27.20;57.70
10121;DHT22;5100;45.176;5.714;2023-07-02T15:00:48;27.20;57.70
10121;DHT22;5100;45.176;5.714;2023-07-02T15:03:15;27.20;57.70
10121;DHT22;5100;45.176;5.714;2023-07-02T15:05:42;27.20;57.50
10121;DHT22;5100;45.176;5.714;2023-07-02T15:08:08;27.20;57.60
10121;DHT22;5100;45.176;5.714;2023-07-02T15:10:36;27.20;57.60
10121;DHT22;5100;45.176;5.714;2023-07-02T15:13:08;27.20;57.80
10121;DHT22;5100;45.176;5.714;2023-07-02T15:15:36;27.20;57.80
10121;DHT22;5100;45.176;5.714;2023-07-02T15:18:03;27.20;57.80
10121;DHT22;5100;45.176;5.714;2023-07-02T15:20:29;27.20;57.60
10121;DHT22;5100;45.176;5.714;2023-07-02T15:22:55;27.30;57.80
10121;DHT22;5100;45.176;5.714;2023-07-02T15:25:21;27.30;57.60
10121;DHT22;5100;45.176;5.714;2023-07-02T15:27:48;27.30;57.70
10121;DHT22;5100;45.176;5.714;2023-07-02T15:30:14;27.30;57.70
10121;DHT22;5100;45.176;5.714;2023-07-02T15:32:40;27.30;57.80
10121;DHT22;5100;45.176;5.714;2023-07-02T15:35:07;27.30;57.90
10121;DHT22;5100;45.176;5.714;2023-07-02T15:37:33;27.30;58.00
10121;DHT22;5100;45.176;5.714;2023-07-02T15:39:59;27.30;57.80
10121;DHT22;5100;45.176;5.714;2023-07-02T15:42:25;27.40;57.70
10121;DHT22;5100;45.176;5.714;2023-07-02T15:44:56;27.40;57.50